Main page
METAR-TAF:

METAR-TAF

Airports :

Lokpriya Gopinath Bordoloi International Airport

Guwahati, India

latitude: 26-06-22N, longitude: 091-35-09E, elevation: 49 m

Current weather observation

The report was made 31 minutes ago, at 02:30 UTC
Calm wind
Temperature 18°C
Humidity 94%
Pressure 1016 hPa
Visibility: 2000 m
Few clouds at a height of 1800 ft
Scattered clouds at a height of 10000 ft
mist

METAR: VEGT 110230Z 00000KT 2000 BR FEW018 SCT100 18/17 Q1016 NOSIG

Time: 08:31 (03:01 UTC)

Forecast

The report was made 1 hour and 1 minutes ago, at 02:00 UTC
Forecast valid from 11 at 03 UTC to 11 at 12 UTC
Wind 3 kt from the Northeast
Visibility: 2500 m
Few clouds at a height of 1800 ft
Scattered clouds at a height of 10000 ft
mist
Becoming
from 11 at 06 UTC to 11 at 08 UTC
Wind 8 kt from the North/Northeast
Visibility: 5000 m
haze

TAF: VEGT 110200Z 1103/1112 05003KT 2500 BR FEW018 SCT100 BECMG 1106/1108 03008KT 5000 HZ

Weather observations and forecasts of more than 4000 airports (METAR and TAF reports).

The available stations are represented by yellow and red dots on the map.

Hover mouse over dot to see the name of the station.

Then click to see weather observations and forecasts.

To change the map : click on the green buttons with a black cross to zoom in, on the green button with a dash to zoom out, or on the green arrows for adjacent maps.


METAR-TAF: